Christian Damsgaard

Scout - FC Copenhagen
4 Apr 2028
Dienstag
Verarbeitung

Persönlichkeit

Anpassungsfähigkeit (3) Ehrgeiz (7) Kontroverse (9) Loyalität (7) Druck (5) Professionalität (1) Fairness (1) Temperament (1)

Profil

Trainerstil Demokratisch
Lizenz Kontinentale B
Entschlossenheit 5
Menschenführung 5
Motivation 12
Disziplin 13
Arbeitszufriedenheit
100%
Ermüdung
0%
Rolle Scout
Gehalt 61.8K p/W
Vertrag 14.03.2030

Leistung

Verhalten Gut
Trainingseffektivität
46%
Spielerentwicklung
65%
Verletzungsprävention
40%
Taktische Umsetzung
45%

Aktuell beobachtet

82
Spieler Verein Status Fähigkeit Vertrauen Beobachtet Zuletzt beobachtet Letzte Stimme
Juho Lähteenmäki FC Nordsjaelland Aktiv 128 / 134 40% 2 01.01.2028 -
Ronan Kpakio Cardiff City Aktiv 125 / 116 40% 1 01.01.2028 -
Lévy Néne FC Nordsjaelland Verloren 125 / 113 40% 1 01.01.2028 -
Afriyie Sulemana Hasaacas Aktiv 96 / 105 40% 2 31.08.2027 -
Mbekezeli Mbokazi Chicago Fire Aktiv 116 / 139 40% 2 31.08.2027 -
Kjell Wätjen FC Midtjylland Aktiv 124 / 120 40% 1 31.08.2027 -
Matías Acevedo Racing Club Verloren 108 / 112 40% 3 30.08.2027 Beobachten
Rayan Bournemouth Aktiv 129 / 151 40% 2 30.08.2027 Mehr Infos nötig
Andy Rojas New York Red Bulls Aktiv 89 / 97 40% 1 30.08.2027 Mehr Infos nötig
Kenan Busuladžić Halmstad Aktiv 118 / 111 40% 1 30.08.2027 Mehr Infos nötig
Drew Baiera New York City Aktiv 84 / 116 40% 1 30.08.2027 Mehr Infos nötig
Alejo Fernández Temperley Aktiv 94 / 100 40% 1 28.08.2027 -
Vitor Reis Manchester City Aktiv 137 / 129 40% 1 26.08.2027 -
Abdoul Djire Ararat Aktiv 99 / 96 40% 1 26.08.2027 -
Dilan Godoy Vélez Aktiv 116 / 110 40% 1 25.08.2027 -
Timofey Simanenka Gomel Aktiv 84 / 87 40% 1 25.08.2027 -
Abduljeleel Abdulateef Odd Aktiv 105 / 93 40% 1 25.08.2027 -
Pablo Suárez Rentistas Aktiv 95 / 111 40% 4 24.08.2027 -
Maren Kefas Plateau United Aktiv 98 / 105 40% 1 24.08.2027 -
Ruben Ramos LA Galaxy Aktiv 90 / 101 40% 2 23.08.2027 -
Emmanuel Gono AIK Aktiv 92 / 92 40% 1 23.08.2027 -
Ahmed Khaled Paralimni Aktiv 92 / 106 40% 3 21.08.2027 -
Viktor Bjarki Daðason FC Nordsjaelland Aktiv 119 / 127 40% 1 21.08.2027 -
Otto Stange Hamburger SV Aktiv 114 / 116 40% 2 20.08.2027 -
Mateus Mané Wolverhampton Aktiv 137 / 156 40% 1 20.08.2027 -
Felipe Serrés Wanderers Aktiv 100 / 107 40% 2 19.08.2027 -
Seymour Reid New York City Aktiv 91 / 92 40% 1 18.08.2027 -
Alessandro Ventre Vis Pesaro Aktiv 86 / 107 40% 2 16.08.2027 -
Mattia Puzone Siracusa Aktiv 100 / 106 40% 1 16.08.2027 -
José Cavadia Valladolid Aktiv 108 / 123 40% 1 16.08.2027 -
Alan Coria Villarreal Aktiv 105 / 113 40% 1 15.08.2027 -
Adama Goïta Remo Stars Aktiv 95 / 102 40% 1 15.08.2027 -
Rudi Vikström FF Jaro Aktiv 94 / 93 40% 1 15.08.2027 -
Facundo Balatti Penarol Aktiv 97 / 120 40% 1 14.08.2027 -
Christ Inao Oulaï Fiorentina Aktiv 144 / 133 40% 2 12.08.2027 -
Saeed Abdulrahman Al Shabab Aktiv 112 / 123 40% 1 12.08.2027 -
Jon Esenga IF Elfsborg Aktiv 99 / 102 40% 1 12.08.2027 -
Felipe Faúndez O'Higgins Aktiv 102 / 96 40% 1 11.08.2027 -
Ravshan Xayrullayev Bukhara Aktiv 106 / 108 40% 1 10.08.2027 -
Caleb Yirenkyi Coventry City Aktiv 144 / 142 40% 1 09.08.2027 -
Honest Ahanor Fiorentina Aktiv 129 / 126 40% 1 09.08.2027 -
Gady Beyuku Modena Aktiv 122 / 109 40% 2 07.08.2027 -
Jack Shorrock Port Vale Aktiv 106 / 103 40% 1 07.08.2027 -
Ezekiel Kwame Alladoh Philadelphia Union Aktiv 111 / 126 40% 1 05.08.2027 -
Simone Kosijer Triestina Aktiv 89 / 99 40% 5 30.07.2027 -
Eliás Montiel Athletic Bilbao Aktiv 134 / 129 40% 2 30.07.2027 -
Elias Baum Eintracht Frankfurt Aktiv 142 / 147 40% 1 30.07.2027 -
Iwan Morgan Grimsby Town Aktiv 115 / 126 40% 2 29.07.2027 -
Mateus Mide Porto Aktiv 95 / 124 40% 3 29.07.2027 -
Ismaël Baouf Cambuur Aktiv 126 / 116 40% 3 28.07.2027 -
Jan Bürger Preston Aktiv 121 / 121 40% 2 28.07.2027 -
Agustín Ruberto River Plate Aktiv 126 / 118 40% 2 27.07.2027 -
Bautista Pereira Cerro Largo Aktiv 97 / 92 40% 1 20.07.2027 -
Jenson Jones Peterborough United Aktiv 90 / 90 40% 2 17.07.2027 -
Borna Knezović Casarano Aktiv 100 / 125 40% 2 16.07.2027 -
Juan Giménez Athletic Bilbao Aktiv 108 / 140 40% 2 16.07.2027 -
Lwanda Mbanjwa Ajax Cape Town Aktiv 86 / 100 40% 1 16.07.2027 -
Marius Courcoul Olympique de Marseille Aktiv 111 / 128 40% 1 16.07.2027 -
Mattia Mannini Juve Stabia Aktiv 114 / 107 40% 3 15.07.2027 -
Riley Owen Bristol Rovers Aktiv 107 / 107 40% 2 15.07.2027 -
Bahmed Deuff FC Metz Aktiv 114 / 142 40% 1 15.07.2027 -
Ezra Mayers West Ham United Aktiv 115 / 129 40% 3 13.07.2027 -
Mats Egbring Heerenveen Aktiv 90 / 93 40% 2 11.07.2027 -
Joe Knight Stevenage Aktiv 113 / 120 40% 2 11.07.2027 -
Yaghoub Barage Persepolis Aktiv 108 / 105 40% 1 08.07.2027 -
Milad Mohammadi Padideh Aktiv 108 / 97 40% 1 06.07.2027 -
Joaquín Moxica Audace Cerignola Aktiv 89 / 112 40% 2 05.07.2027 -
Daniel Banjaqui Benfica Aktiv 111 / 111 40% 2 05.07.2027 -
Teo Rodríguez Pagano San Lorenzo Aktiv 116 / 116 40% 1 05.07.2027 -
Elías de León Deportivo Maldonado Aktiv 93 / 93 40% 1 05.07.2027 -
Kazunari Kita Real Sociedad Aktiv 113 / 111 40% 1 03.07.2027 -
Nnamdi Obafemi Remo Stars Aktiv 100 / 104 40% 1 30.06.2027 -
Milan Roganović Partizan Aktiv 122 / 112 40% 1 30.06.2027 -
Kasra Taheri Foolad Aktiv 114 / 110 40% 1 29.06.2027 -
Bernardo Lima Porto Aktiv 99 / 118 40% 1 29.06.2027 -
Dylan Lawlor Cardiff City Aktiv 120 / 126 40% 1 26.06.2027 -
Alexis Vossah Toulouse FC Aktiv 115 / 131 40% 1 22.06.2027 -
Martim Cunha Porto Aktiv 93 / 104 40% 1 22.06.2027 -
Emmanuel Nweke Smouha Aktiv 108 / 120 40% 1 22.06.2027 -
Sheldon Dinesh Stockport County Aktiv 83 / 99 40% 1 22.06.2027 -
Tomáš Souček West Ham United Aktiv 133 / 136 40% 1 01.08.2026 -
Dwight McNeil Crystal Palace Aktiv 125 / 125 40% 1 01.08.2026 -